createdAt,value
2023-03-15T00:02:08.126Z,34.20
2023-03-15T00:04:37.749Z,34.25
2023-03-15T00:07:06.943Z,34.33
2023-03-15T00:09:36.494Z,34.55
2023-03-15T00:12:07.208Z,34.72
2023-03-15T00:14:37.681Z,34.88
2023-03-15T00:17:06.958Z,34.94
2023-03-15T00:19:35.955Z,35.40
2023-03-15T00:22:05.471Z,35.37
2023-03-15T00:24:34.984Z,35.69
2023-03-15T00:27:05.976Z,35.83
2023-03-15T00:29:35.889Z,37.40
2023-03-15T00:32:05.792Z,36.52
2023-03-15T00:34:35.007Z,36.15
2023-03-15T00:37:03.143Z,36.18
2023-03-15T00:39:37.412Z,36.36
2023-03-15T01:40:43.097Z,39.76
2023-03-15T01:43:18.420Z,39.79
2023-03-15T01:46:38.125Z,40.03
2023-03-15T01:49:22.215Z,40.47
2023-03-15T01:51:55.788Z,40.32
2023-03-15T01:54:31.180Z,40.42
2023-03-15T01:57:03.990Z,40.71
2023-03-15T01:59:36.776Z,41.00
2023-03-15T02:02:07.743Z,40.99
2023-03-15T02:04:46.015Z,41.36
2023-03-15T02:07:18.193Z,41.25
2023-03-15T02:09:54.760Z,41.31
2023-03-15T02:12:24.156Z,41.55
2023-03-15T02:14:54.117Z,41.63
2023-03-15T02:17:30.864Z,41.86
2023-03-15T02:20:12.235Z,42.11
2023-03-15T02:22:52.689Z,42.24
2023-03-15T02:25:34.445Z,42.24
2023-03-15T02:28:05.870Z,42.56
2023-03-15T02:30:35.448Z,42.61
2023-03-15T02:33:09.160Z,42.58
2023-03-15T02:35:38.471Z,42.91
2023-03-15T02:38:07.683Z,42.81
2023-03-15T02:40:39.713Z,42.88
2023-03-15T02:43:13.926Z,42.93
2023-03-15T02:45:44.854Z,43.29
2023-03-15T02:48:14.066Z,43.43
2023-03-15T02:50:42.047Z,43.25
2023-03-15T02:53:11.840Z,44.04
2023-03-15T02:55:41.035Z,43.80
2023-03-15T02:58:09.068Z,43.90
2023-03-15T03:00:38.922Z,44.21
2023-03-15T03:03:08.523Z,44.05
2023-03-15T03:05:37.942Z,44.26
2023-03-15T03:08:07.550Z,44.27
2023-03-15T03:10:36.781Z,44.26
2023-03-15T03:13:04.918Z,44.56
2023-03-15T03:15:34.527Z,44.83
2023-03-15T03:18:05.057Z,44.69
2023-03-15T03:20:34.755Z,44.82
2023-03-15T03:23:05.720Z,44.75
2023-03-15T03:25:36.213Z,44.85
2023-03-15T03:28:05.367Z,44.87
2023-03-15T03:30:35.054Z,45.15
2023-03-15T03:33:04.480Z,45.27
2023-03-15T03:35:33.616Z,45.08
2023-03-15T03:38:01.619Z,45.29
2023-03-15T04:11:29.254Z,46.93
2023-03-15T04:13:59.059Z,47.01
2023-03-15T04:16:28.340Z,47.02
2023-03-15T04:18:56.400Z,47.09
2023-03-15T04:21:25.947Z,47.19
2023-03-15T04:23:55.327Z,47.27
2023-03-15T04:26:25.975Z,47.36
2023-03-15T04:28:56.389Z,47.82
2023-03-15T04:31:26.713Z,47.74
2023-03-15T04:33:56.424Z,47.56
2023-03-15T04:36:25.498Z,47.68
2023-03-15T04:39:04.907Z,47.94
2023-03-15T04:41:34.827Z,48.06
2023-03-15T04:44:05.160Z,47.96
2023-03-15T04:46:34.371Z,48.12
2023-03-15T04:49:04.518Z,48.50
2023-03-15T04:51:34.568Z,48.39
2023-03-15T04:54:03.957Z,48.77
2023-03-15T04:56:31.988Z,48.73
2023-03-15T04:59:01.284Z,48.82
2023-03-15T05:01:30.758Z,49.22
2023-03-15T05:04:00.330Z,49.34
2023-03-15T05:06:30.047Z,49.50
2023-03-15T05:08:59.332Z,49.23
2023-03-15T05:11:27.440Z,49.56
2023-03-15T05:13:56.846Z,49.44
2023-03-15T05:16:26.457Z,49.33
2023-03-15T05:18:56.842Z,49.37
2023-03-15T05:21:26.028Z,49.62
2023-03-15T05:23:55.194Z,49.70
2023-03-15T05:26:25.053Z,49.56
2023-03-15T05:28:54.209Z,49.81
2023-03-15T05:31:22.301Z,49.68
2023-03-15T05:33:53.971Z,49.94
2023-03-15T05:36:23.153Z,49.88
2023-03-15T05:38:52.204Z,49.74
2023-03-15T05:41:21.224Z,49.96
2023-03-15T05:43:50.279Z,49.90
2023-03-15T05:46:19.980Z,49.74
2023-03-15T05:48:49.020Z,49.74
2023-03-15T05:51:18.156Z,50.27
2023-03-15T05:53:47.585Z,49.94
2023-03-15T05:56:16.482Z,49.95
2023-03-15T05:58:45.488Z,49.98
2023-03-15T06:01:14.603Z,49.89
2023-03-15T06:03:43.777Z,49.78
2023-03-15T06:06:12.822Z,50.09
2023-03-15T06:08:41.825Z,49.80
2023-03-15T06:11:11.715Z,49.86
2023-03-15T06:17:43.206Z,49.89
2023-03-15T06:20:13.875Z,49.88
2023-03-15T06:22:42.945Z,49.88
2023-03-15T06:25:11.530Z,49.87
2023-03-15T06:27:40.541Z,50.17
2023-03-15T06:30:11.929Z,50.07
2023-03-15T06:32:41.008Z,50.14
2023-03-15T06:35:10.439Z,49.99
2023-03-15T06:37:41.371Z,50.11
2023-03-15T06:40:13.435Z,49.99
2023-03-15T06:42:42.544Z,50.07
2023-03-15T06:45:15.930Z,50.25
2023-03-15T06:47:44.944Z,50.24
2023-03-15T06:50:14.055Z,49.95
2023-03-15T06:52:43.158Z,50.07
2023-03-15T06:55:16.724Z,49.97
2023-03-15T06:57:45.925Z,50.03
2023-03-15T07:00:17.198Z,50.14
2023-03-15T07:02:46.187Z,49.97
2023-03-15T07:05:16.119Z,50.07
2023-03-15T07:07:45.115Z,50.51
2023-03-15T07:10:14.401Z,49.96
2023-03-15T07:12:43.495Z,50.26
2023-03-15T07:15:13.592Z,49.98
2023-03-15T07:17:42.669Z,50.01
2023-03-15T07:20:12.213Z,49.94
2023-03-15T07:22:41.266Z,50.10
2023-03-15T07:25:11.016Z,49.99
2023-03-15T07:27:40.100Z,49.80
2023-03-15T07:30:10.277Z,49.75
2023-03-15T07:32:39.499Z,49.95
2023-03-15T07:35:12.923Z,49.70
2023-03-15T07:37:44.607Z,49.52
2023-03-15T07:40:15.581Z,49.42
2023-03-15T07:42:45.396Z,49.20
2023-03-15T07:45:14.729Z,49.11
2023-03-15T07:47:44.407Z,49.08
2023-03-15T07:50:16.922Z,48.92
2023-03-15T07:52:46.173Z,49.05
2023-03-15T07:55:15.285Z,48.94
2023-03-15T07:57:43.178Z,48.88
2023-03-15T08:00:14.329Z,48.89
2023-03-15T08:02:43.821Z,48.81
2023-03-15T08:05:12.957Z,48.83
2023-03-15T08:07:41.155Z,48.82
2023-03-15T08:10:12.218Z,48.73
2023-03-15T08:12:42.583Z,48.66
2023-03-15T08:15:15.738Z,48.63
2023-03-15T08:17:46.967Z,48.70
2023-03-15T08:20:17.589Z,48.49
2023-03-15T08:22:47.219Z,48.82
2023-03-15T08:25:19.551Z,48.70
2023-03-15T08:27:50.496Z,48.40
2023-03-15T08:30:21.471Z,48.40
2023-03-15T08:32:51.946Z,48.51
2023-03-15T08:35:22.484Z,48.36
2023-03-15T08:37:51.907Z,48.43
2023-03-15T08:40:24.813Z,48.37
2023-03-15T08:42:55.283Z,48.38
2023-03-15T08:45:25.764Z,48.23
2023-03-15T08:47:56.682Z,48.04
2023-03-15T08:50:29.504Z,48.01
2023-03-15T08:52:58.800Z,49.40
2023-03-15T08:55:29.485Z,49.51
2023-03-15T08:58:01.018Z,49.19
2023-03-15T09:00:30.470Z,49.26
2023-03-15T09:03:03.842Z,48.98
2023-03-15T09:05:36.470Z,48.67
2023-03-15T09:08:06.341Z,48.60
2023-03-15T09:10:35.664Z,47.77
2023-03-15T09:13:04.674Z,47.29
2023-03-15T09:15:33.675Z,47.10
2023-03-15T09:18:05.553Z,46.96
2023-03-15T09:20:34.692Z,46.63
2023-03-15T09:23:02.642Z,46.57
2023-03-15T09:25:31.736Z,46.57
2023-03-15T09:27:59.882Z,46.56
2023-03-15T09:30:29.379Z,46.59
2023-03-15T09:33:09.953Z,46.56
2023-03-15T09:35:38.995Z,46.54
2023-03-15T09:38:08.115Z,46.43
2023-03-15T09:40:58.466Z,46.46
2023-03-15T09:43:50.968Z,46.17
2023-03-15T09:46:29.284Z,46.23
2023-03-15T09:49:04.424Z,46.17
2023-03-15T09:51:41.439Z,46.18
2023-03-15T09:54:14.654Z,45.87
2023-03-15T09:56:51.104Z,45.78
2023-03-15T09:59:22.351Z,45.83
2023-03-15T10:01:56.100Z,45.82
2023-03-15T10:04:30.506Z,45.75
2023-03-15T10:07:03.967Z,45.63
2023-03-15T10:09:34.730Z,45.65
2023-03-15T10:12:23.356Z,45.29
2023-03-15T10:15:26.216Z,45.26
2023-03-15T10:18:26.352Z,45.32
2023-03-15T10:21:07.497Z,44.92
2023-03-15T10:23:55.717Z,44.79
2023-03-15T10:26:33.610Z,44.72
2023-03-15T10:29:15.590Z,44.47
2023-03-15T10:31:46.640Z,44.37
2023-03-15T10:34:16.624Z,44.23
2023-03-15T10:36:49.345Z,44.21
2023-03-15T10:39:23.417Z,44.01
2023-03-15T10:41:55.548Z,43.76
2023-03-15T10:44:27.564Z,43.50
2023-03-15T10:47:21.469Z,43.51
2023-03-15T10:50:01.122Z,43.35
2023-03-15T10:52:38.269Z,43.11
2023-03-15T10:55:14.038Z,43.17
2023-03-15T10:57:55.559Z,43.06
2023-03-15T11:00:33.609Z,42.80
2023-03-15T11:03:06.136Z,42.69
2023-03-15T11:05:41.566Z,42.33
2023-03-15T11:08:14.426Z,42.04
2023-03-15T11:10:47.157Z,42.01
2023-03-15T11:13:23.874Z,41.83
2023-03-15T11:16:03.745Z,41.18
2023-03-15T11:18:43.162Z,41.47
2023-03-15T11:21:19.618Z,41.28
2023-03-15T11:23:50.810Z,41.07
2023-03-15T11:26:39.214Z,41.11
2023-03-15T11:29:23.752Z,40.94
2023-03-15T11:31:56.729Z,40.68
2023-03-15T11:34:39.090Z,40.53
2023-03-15T11:37:19.605Z,40.40
2023-03-15T11:40:10.504Z,40.40
2023-03-15T11:42:48.553Z,40.03
2023-03-15T11:45:29.438Z,40.05
2023-03-15T11:48:06.404Z,40.37
2023-03-15T11:50:40.168Z,40.49
2023-03-15T11:53:14.437Z,40.22
2023-03-15T11:55:51.704Z,40.24
2023-03-15T11:58:37.833Z,40.12
2023-03-15T12:01:11.121Z,39.87
2023-03-15T12:03:45.107Z,39.76
2023-03-15T12:06:47.427Z,39.15
2023-03-15T12:09:51.421Z,39.09
2023-03-15T12:12:44.689Z,38.69
2023-03-15T12:15:45.340Z,38.70
2023-03-15T12:18:26.435Z,38.81
2023-03-15T12:21:24.002Z,38.85
2023-03-15T12:24:04.689Z,38.88
2023-03-15T12:26:42.780Z,38.94
2023-03-15T12:29:22.623Z,38.84
2023-03-15T12:31:58.233Z,38.74
2023-03-15T12:34:36.584Z,38.69
2023-03-15T12:37:09.838Z,38.58
2023-03-15T12:39:42.850Z,38.63
2023-03-15T12:42:53.931Z,38.33
2023-03-15T12:45:45.811Z,38.26
2023-03-15T12:48:23.207Z,38.00
2023-03-15T12:51:14.045Z,37.84
2023-03-15T12:53:52.602Z,37.65
2023-03-15T12:56:44.321Z,37.55
2023-03-15T12:59:47.753Z,37.36
2023-03-15T13:02:44.398Z,37.28
2023-03-15T13:05:20.590Z,37.09
2023-03-15T13:08:19.556Z,37.00
2023-03-15T13:10:59.962Z,36.55
2023-03-15T13:14:00.200Z,36.59
2023-03-15T13:16:36.237Z,36.22
2023-03-15T13:19:18.681Z,36.29
2023-03-15T13:22:15.431Z,36.21
2023-03-15T13:24:57.296Z,35.79
2023-03-15T13:27:50.388Z,35.70
2023-03-15T13:30:38.285Z,35.50
2023-03-15T13:33:22.523Z,35.56
2023-03-15T13:36:11.336Z,35.26
2023-03-15T13:38:43.486Z,35.22
2023-03-15T13:41:21.556Z,35.14
2023-03-15T13:43:52.721Z,35.03
2023-03-15T13:46:23.897Z,34.56
2023-03-15T13:48:54.295Z,34.42
2023-03-15T13:51:35.636Z,34.38
2023-03-15T13:54:08.555Z,34.11
2023-03-15T13:56:49.703Z,33.52
2023-03-15T13:59:20.151Z,33.45
2023-03-15T14:01:54.077Z,33.51
2023-03-15T14:04:39.747Z,33.12
2023-03-15T14:07:27.671Z,33.08
2023-03-15T14:10:24.668Z,32.95
2023-03-15T14:12:56.137Z,32.74
2023-03-15T14:15:35.182Z,32.34
2023-03-15T14:18:16.977Z,32.39
2023-03-15T14:20:52.967Z,32.21
2023-03-15T14:23:26.474Z,32.09
2023-03-15T14:26:01.145Z,32.04
2023-03-15T14:28:32.749Z,31.70
2023-03-15T14:31:02.354Z,31.97
2023-03-15T14:33:37.579Z,31.95
2023-03-15T14:36:10.127Z,31.96
2023-03-15T14:38:40.742Z,31.50
2023-03-15T14:41:25.262Z,31.67
2023-03-15T14:43:54.513Z,31.54
2023-03-15T14:46:23.987Z,31.60
2023-03-15T14:48:53.356Z,31.48
2023-03-15T14:51:25.145Z,31.53
2023-03-15T14:53:57.170Z,31.24
2023-03-15T14:56:26.282Z,30.56
2023-03-15T14:58:55.452Z,30.68
2023-03-15T15:01:26.894Z,30.89
2023-03-15T15:03:59.225Z,30.96
2023-03-15T15:06:31.390Z,30.89
2023-03-15T15:09:03.130Z,31.15
2023-03-15T15:11:32.959Z,30.97
2023-03-15T15:14:29.482Z,31.16
2023-03-15T15:16:58.630Z,31.09
2023-03-15T15:19:27.804Z,31.05
2023-03-15T15:21:57.558Z,31.01
2023-03-15T15:24:27.534Z,30.83
2023-03-15T15:26:56.535Z,30.74
2023-03-15T15:29:25.598Z,30.80
2023-03-15T15:31:55.156Z,30.57
2023-03-15T15:34:24.679Z,30.52
2023-03-15T15:36:53.959Z,30.67
2023-03-15T15:39:25.618Z,30.68
2023-03-15T15:41:54.575Z,30.56
2023-03-15T15:44:24.955Z,30.63
2023-03-15T15:46:54.354Z,30.65
2023-03-15T15:49:23.846Z,30.51
2023-03-15T15:51:52.883Z,30.54
2023-03-15T15:54:26.124Z,30.57
2023-03-15T15:56:57.816Z,30.47
2023-03-15T15:59:27.253Z,30.43
2023-03-15T16:02:01.711Z,30.40
2023-03-15T16:04:32.336Z,30.53
2023-03-15T16:07:03.316Z,30.47
2023-03-15T16:09:35.446Z,30.56
2023-03-15T16:12:11.213Z,30.46
2023-03-15T16:14:41.642Z,30.65
2023-03-15T16:17:18.109Z,30.61
2023-03-15T16:19:47.499Z,30.74
2023-03-15T16:22:18.455Z,30.87
2023-03-15T16:24:51.438Z,31.00
2023-03-15T16:27:26.940Z,31.13
2023-03-15T16:29:56.213Z,31.34
2023-03-15T16:32:42.878Z,31.53
2023-03-15T16:35:14.941Z,31.83
2023-03-15T16:37:47.338Z,32.02
2023-03-15T16:40:22.557Z,32.11
2023-03-15T16:42:52.187Z,32.39
2023-03-15T16:45:22.075Z,32.63
2023-03-15T16:47:51.659Z,32.63
2023-03-15T16:50:21.174Z,32.89
2023-03-15T16:52:55.432Z,33.09
2023-03-15T16:55:26.821Z,33.20
2023-03-15T16:57:57.535Z,33.44
2023-03-15T17:00:27.312Z,33.45
2023-03-15T17:02:59.486Z,33.69
2023-03-15T17:05:28.964Z,33.85
2023-03-15T17:08:00.217Z,34.00
2023-03-15T17:10:32.109Z,34.13
2023-03-15T17:13:02.540Z,34.42
2023-03-15T17:15:31.692Z,34.48
2023-03-15T17:18:02.658Z,34.73
2023-03-15T17:20:31.837Z,35.02
2023-03-15T17:23:04.282Z,35.13
2023-03-15T17:25:34.680Z,35.24
2023-03-15T17:28:04.816Z,35.30
2023-03-15T17:30:36.223Z,35.53
2023-03-15T17:33:06.116Z,35.66
2023-03-15T17:35:37.576Z,35.79
2023-03-15T17:38:13.722Z,35.87
2023-03-15T17:40:43.271Z,36.02
2023-03-15T17:43:14.396Z,36.04
2023-03-15T17:45:44.278Z,36.20
2023-03-15T17:48:13.924Z,36.24
2023-03-15T17:50:45.284Z,36.49
2023-03-15T17:53:17.298Z,36.60
2023-03-15T17:55:49.088Z,36.81
2023-03-15T17:58:22.452Z,36.88
2023-03-15T18:00:56.006Z,36.98
2023-03-15T18:03:31.350Z,37.17
2023-03-15T18:06:05.136Z,37.26
2023-03-15T18:08:36.406Z,37.37
2023-03-15T18:11:16.909Z,37.54
2023-03-15T18:13:46.067Z,37.70
2023-03-15T18:16:15.475Z,37.82
2023-03-15T18:18:48.159Z,38.04
2023-03-15T18:21:20.347Z,38.30
2023-03-15T18:23:53.788Z,38.46
2023-03-15T18:26:26.593Z,38.84
2023-03-15T18:28:56.063Z,38.87
2023-03-15T18:31:26.805Z,39.21
2023-03-15T18:33:57.205Z,39.39
2023-03-15T18:36:26.685Z,39.55
2023-03-15T18:38:56.689Z,39.73
2023-03-15T18:41:26.852Z,39.84
2023-03-15T18:43:58.337Z,40.03
2023-03-15T18:46:27.717Z,40.24
2023-03-15T18:48:57.015Z,40.33
2023-03-15T18:51:27.768Z,40.71
2023-03-15T18:53:57.448Z,40.70
2023-03-15T18:56:31.466Z,40.90
2023-03-15T18:59:01.967Z,41.28
2023-03-15T19:01:33.995Z,41.21
2023-03-15T19:04:03.302Z,41.54
2023-03-15T19:06:34.651Z,41.62
2023-03-15T19:09:04.957Z,41.81
2023-03-15T19:11:37.804Z,41.97
2023-03-15T19:14:07.485Z,41.95
2023-03-15T19:16:53.382Z,42.19
2023-03-15T19:19:23.980Z,42.36
2023-03-15T19:22:05.759Z,42.47
2023-03-15T19:24:37.290Z,42.65
2023-03-15T19:27:09.970Z,42.84
2023-03-15T19:29:45.158Z,42.84
2023-03-15T19:32:19.906Z,42.93
2023-03-15T19:34:52.579Z,43.22
2023-03-15T19:37:25.182Z,43.44
2023-03-15T19:39:59.774Z,43.58
2023-03-15T19:42:31.143Z,43.65
2023-03-15T19:45:11.995Z,43.71
2023-03-15T19:47:44.414Z,43.86
2023-03-15T19:53:00.325Z,44.16
2023-03-15T19:55:31.701Z,44.31
2023-03-15T19:58:01.273Z,44.41
2023-03-15T20:00:33.978Z,44.78
2023-03-15T20:03:03.210Z,44.85
2023-03-15T20:05:34.448Z,44.89
2023-03-15T20:08:03.688Z,45.12
2023-03-15T20:10:33.190Z,45.47
2023-03-15T20:13:03.174Z,45.46
2023-03-15T20:15:32.191Z,45.59
2023-03-15T20:18:03.718Z,45.82
2023-03-15T20:20:33.077Z,45.91
2023-03-15T20:23:03.134Z,46.15
2023-03-15T20:25:32.438Z,46.32
2023-03-15T20:28:03.575Z,46.53
2023-03-15T20:30:33.065Z,46.58
2023-03-15T20:33:02.502Z,47.27
2023-03-15T20:35:31.661Z,47.37
2023-03-15T20:38:06.259Z,47.52
2023-03-15T20:40:37.936Z,47.69
2023-03-15T20:43:07.724Z,47.95
2023-03-15T20:45:36.970Z,48.30
2023-03-15T20:48:06.272Z,48.40
2023-03-15T20:50:41.511Z,48.81
2023-03-15T20:53:14.119Z,49.01
2023-03-15T20:55:44.965Z,49.10
2023-03-15T20:58:17.418Z,49.49
2023-03-15T21:00:47.795Z,49.76
2023-03-15T21:03:18.120Z,50.13
2023-03-15T21:05:47.867Z,49.97
2023-03-15T21:08:19.753Z,50.07
2023-03-15T21:10:49.226Z,50.35
2023-03-15T21:13:18.522Z,50.80
2023-03-15T21:15:48.431Z,51.24
2023-03-15T21:18:21.933Z,51.26
2023-03-15T21:20:58.232Z,52.18
2023-03-15T21:23:30.663Z,51.81
2023-03-15T21:26:03.119Z,51.82
2023-03-15T21:28:35.516Z,52.22
2023-03-15T21:31:05.544Z,52.60
2023-03-15T21:33:35.338Z,52.53
2023-03-15T21:36:05.416Z,52.99
2023-03-15T21:38:35.991Z,53.92
2023-03-15T21:41:10.627Z,54.07
2023-03-15T21:43:41.688Z,54.25
2023-03-15T21:46:13.427Z,54.07
2023-03-15T21:48:43.143Z,53.93
2023-03-15T21:51:14.581Z,53.99
2023-03-15T21:53:46.035Z,54.06
2023-03-15T21:56:16.231Z,54.18
2023-03-15T21:58:45.760Z,54.50
2023-03-15T22:01:15.030Z,54.56
2023-03-15T22:03:44.272Z,55.23
2023-03-15T22:06:16.768Z,55.52
2023-03-15T22:08:47.285Z,55.62
2023-03-15T22:11:26.057Z,55.61
2023-03-15T22:13:59.258Z,55.57
2023-03-15T22:16:33.042Z,55.49
2023-03-15T22:19:04.052Z,55.85
2023-03-15T22:21:36.368Z,56.10
2023-03-15T22:24:21.206Z,55.90
2023-03-15T22:26:52.648Z,56.08
2023-03-15T22:29:21.968Z,56.54
2023-03-15T22:31:53.039Z,56.51
2023-03-15T22:34:27.034Z,56.55
2023-03-15T22:36:56.227Z,57.19
2023-03-15T22:39:27.304Z,57.14
2023-03-15T22:41:57.944Z,57.44
2023-03-15T22:44:30.959Z,57.43
2023-03-15T22:47:02.393Z,57.42
2023-03-15T22:49:33.385Z,58.62
2023-03-15T22:52:05.271Z,57.96
2023-03-15T22:54:35.482Z,57.90
2023-03-15T22:57:09.621Z,58.27
2023-03-15T22:59:39.810Z,57.95
2023-03-15T23:02:11.546Z,57.87
2023-03-15T23:04:41.649Z,58.33
2023-03-15T23:07:11.504Z,58.08
2023-03-15T23:09:41.113Z,58.24
2023-03-15T23:12:12.244Z,58.15
2023-03-15T23:14:44.742Z,58.35
2023-03-15T23:17:16.544Z,58.93
2023-03-15T23:19:48.025Z,58.61
2023-03-15T23:22:17.449Z,58.46
2023-03-15T23:24:48.269Z,58.48
2023-03-15T23:27:17.593Z,58.47
2023-03-15T23:29:55.369Z,58.90
2023-03-15T23:32:27.288Z,58.88
2023-03-15T23:34:57.457Z,58.84
2023-03-15T23:37:30.672Z,59.58
2023-03-15T23:40:01.616Z,59.04
2023-03-15T23:42:32.471Z,59.23
2023-03-15T23:45:09.174Z,59.45
2023-03-15T23:47:39.751Z,59.14
2023-03-15T23:50:12.876Z,59.24
2023-03-15T23:53:01.950Z,59.02
2023-03-15T23:55:33.042Z,59.00
2023-03-15T23:58:06.206Z,59.50
